sensor_id;sensor_type;location;lat;lon;timestamp;temperature;humidity
21121;DHT22;12519;43.318;21.898;2023-06-10T00:05:08;22.5;89.0
21121;DHT22;12519;43.318;21.898;2023-06-10T00:09:44;22.5;89.0
21121;DHT22;12519;43.318;21.898;2023-06-10T00:14:21;22.5;89.0
21121;DHT22;12519;43.318;21.898;2023-06-10T00:19:00;22.5;89.0
21121;DHT22;12519;43.318;21.898;2023-06-10T00:23:36;22.6;90.0
21121;DHT22;12519;43.318;21.898;2023-06-10T00:28:13;22.6;90.0
21121;DHT22;12519;43.318;21.898;2023-06-10T00:32:49;22.6;90.0
21121;DHT22;12519;43.318;21.898;2023-06-10T00:37:26;22.6;90.0
21121;DHT22;12519;43.318;21.898;2023-06-10T00:42:05;22.6;91.0
21121;DHT22;12519;43.318;21.898;2023-06-10T00:46:45;22.6;91.0
21121;DHT22;12519;43.318;21.898;2023-06-10T00:51:23;22.6;91.0
21121;DHT22;12519;43.318;21.898;2023-06-10T00:56:00;22.5;92.0
21121;DHT22;12519;43.318;21.898;2023-06-10T01:00:37;22.5;92.0
21121;DHT22;12519;43.318;21.898;2023-06-10T01:05:15;22.1;93.0
21121;DHT22;12519;43.318;21.898;2023-06-10T01:10:12;22.1;93.0
21121;DHT22;12519;43.318;21.898;2023-06-10T01:15:01;21.7;95.0
21121;DHT22;12519;43.318;21.898;2023-06-10T01:19:38;21.7;95.0
21121;DHT22;12519;43.318;21.898;2023-06-10T01:24:15;21.6;95.0
21121;DHT22;12519;43.318;21.898;2023-06-10T01:29:13;21.6;95.0
21121;DHT22;12519;43.318;21.898;2023-06-10T01:34:07;21.6;95.0
21121;DHT22;12519;43.318;21.898;2023-06-10T01:38:56;21.6;95.0
21121;DHT22;12519;43.318;21.898;2023-06-10T01:43:39;21.7;95.0
21121;DHT22;12519;43.318;21.898;2023-06-10T01:48:17;21.7;95.0
21121;DHT22;12519;43.318;21.898;2023-06-10T01:52:53;21.8;95.0
21121;DHT22;12519;43.318;21.898;2023-06-10T01:57:29;21.8;95.0
21121;DHT22;12519;43.318;21.898;2023-06-10T02:02:06;21.8;95.0
21121;DHT22;12519;43.318;21.898;2023-06-10T02:06:42;21.8;95.0
21121;DHT22;12519;43.318;21.898;2023-06-10T02:11:19;21.8;95.0
21121;DHT22;12519;43.318;21.898;2023-06-10T02:15:55;21.9;95.0
21121;DHT22;12519;43.318;21.898;2023-06-10T02:20:32;21.9;95.0
21121;DHT22;12519;43.318;21.898;2023-06-10T02:25:09;21.8;95.0
21121;DHT22;12519;43.318;21.898;2023-06-10T02:29:46;21.8;95.0
21121;DHT22;12519;43.318;21.898;2023-06-10T02:34:22;21.8;95.0
21121;DHT22;12519;43.318;21.898;2023-06-10T02:38:59;21.8;95.0
21121;DHT22;12519;43.318;21.898;2023-06-10T02:43:36;22.0;94.0
21121;DHT22;12519;43.318;21.898;2023-06-10T02:48:12;22.0;94.0
21121;DHT22;12519;43.318;21.898;2023-06-10T02:52:49;22.1;94.0
21121;DHT22;12519;43.318;21.898;2023-06-10T02:57:25;22.1;94.0
21121;DHT22;12519;43.318;21.898;2023-06-10T03:02:02;22.1;94.0
21121;DHT22;12519;43.318;21.898;2023-06-10T03:06:39;22.0;94.0
21121;DHT22;12519;43.318;21.898;2023-06-10T03:11:17;22.0;94.0
21121;DHT22;12519;43.318;21.898;2023-06-10T03:15:53;21.9;95.0
21121;DHT22;12519;43.318;21.898;2023-06-10T03:20:29;21.9;95.0
21121;DHT22;12519;43.318;21.898;2023-06-10T03:25:09;21.8;96.0
21121;DHT22;12519;43.318;21.898;2023-06-10T03:29:45;21.8;96.0
21121;DHT22;12519;43.318;21.898;2023-06-10T03:34:22;21.6;96.0
21121;DHT22;12519;43.318;21.898;2023-06-10T03:38:59;21.6;96.0
21121;DHT22;12519;43.318;21.898;2023-06-10T03:43:37;21.6;97.0
21121;DHT22;12519;43.318;21.898;2023-06-10T03:48:14;21.6;97.0
21121;DHT22;12519;43.318;21.898;2023-06-10T03:52:51;21.5;97.0
21121;DHT22;12519;43.318;21.898;2023-06-10T03:57:28;21.5;97.0
21121;DHT22;12519;43.318;21.898;2023-06-10T04:02:05;21.5;97.0
21121;DHT22;12519;43.318;21.898;2023-06-10T04:06:42;21.9;97.0
21121;DHT22;12519;43.318;21.898;2023-06-10T04:11:20;21.9;97.0
21121;DHT22;12519;43.318;21.898;2023-06-10T04:15:57;22.3;97.0
21121;DHT22;12519;43.318;21.898;2023-06-10T04:20:34;22.3;97.0
21121;DHT22;12519;43.318;21.898;2023-06-10T04:25:10;22.4;96.0
21121;DHT22;12519;43.318;21.898;2023-06-10T04:29:47;22.4;96.0
21121;DHT22;12519;43.318;21.898;2023-06-10T04:34:23;22.4;95.0
21121;DHT22;12519;43.318;21.898;2023-06-10T04:39:00;22.4;95.0
21121;DHT22;12519;43.318;21.898;2023-06-10T04:43:36;22.2;95.0
21121;DHT22;12519;43.318;21.898;2023-06-10T04:48:14;22.2;95.0
21121;DHT22;12519;43.318;21.898;2023-06-10T04:52:51;22.1;95.0
21121;DHT22;12519;43.318;21.898;2023-06-10T04:57:27;22.1;95.0
21121;DHT22;12519;43.318;21.898;2023-06-10T05:02:05;22.1;95.0
21121;DHT22;12519;43.318;21.898;2023-06-10T05:06:42;22.4;96.0
21121;DHT22;12519;43.318;21.898;2023-06-10T05:11:18;22.4;96.0
21121;DHT22;12519;43.318;21.898;2023-06-10T05:15:55;22.6;96.0
21121;DHT22;12519;43.318;21.898;2023-06-10T05:20:31;22.6;96.0
21121;DHT22;12519;43.318;21.898;2023-06-10T05:25:08;22.4;96.0
21121;DHT22;12519;43.318;21.898;2023-06-10T05:29:45;22.4;96.0
21121;DHT22;12519;43.318;21.898;2023-06-10T05:34:21;22.2;95.0
21121;DHT22;12519;43.318;21.898;2023-06-10T05:38:58;22.2;95.0
21121;DHT22;12519;43.318;21.898;2023-06-10T05:43:34;22.0;96.0
21121;DHT22;12519;43.318;21.898;2023-06-10T05:48:10;22.0;96.0
21121;DHT22;12519;43.318;21.898;2023-06-10T05:52:47;21.9;98.0
21121;DHT22;12519;43.318;21.898;2023-06-10T05:57:24;21.9;98.0
21121;DHT22;12519;43.318;21.898;2023-06-10T06:02:00;21.9;98.0
21121;DHT22;12519;43.318;21.898;2023-06-10T06:06:39;21.8;98.0
21121;DHT22;12519;43.318;21.898;2023-06-10T06:11:16;21.8;98.0
21121;DHT22;12519;43.318;21.898;2023-06-10T06:15:53;21.8;99.0
21121;DHT22;12519;43.318;21.898;2023-06-10T06:20:30;21.8;99.0
21121;DHT22;12519;43.318;21.898;2023-06-10T06:25:08;22.0;99.0
21121;DHT22;12519;43.318;21.898;2023-06-10T06:29:44;22.0;99.0
21121;DHT22;12519;43.318;21.898;2023-06-10T06:34:21;22.1;98.0
21121;DHT22;12519;43.318;21.898;2023-06-10T06:38:58;22.1;98.0
21121;DHT22;12519;43.318;21.898;2023-06-10T06:43:35;22.5;97.0
21121;DHT22;12519;43.318;21.898;2023-06-10T06:48:13;22.5;97.0
21121;DHT22;12519;43.318;21.898;2023-06-10T06:52:49;22.8;96.0
21121;DHT22;12519;43.318;21.898;2023-06-10T06:57:26;22.8;96.0
21121;DHT22;12519;43.318;21.898;2023-06-10T07:02:04;22.8;96.0
21121;DHT22;12519;43.318;21.898;2023-06-10T07:06:42;23.2;95.0
21121;DHT22;12519;43.318;21.898;2023-06-10T07:11:18;23.2;95.0
21121;DHT22;12519;43.318;21.898;2023-06-10T07:15:54;23.7;94.0
21121;DHT22;12519;43.318;21.898;2023-06-10T07:20:31;23.7;94.0
21121;DHT22;12519;43.318;21.898;2023-06-10T07:25:09;23.8;92.0
21121;DHT22;12519;43.318;21.898;2023-06-10T07:29:45;23.8;92.0
21121;DHT22;12519;43.318;21.898;2023-06-10T07:34:22;24.0;91.0
21121;DHT22;12519;43.318;21.898;2023-06-10T07:38:58;24.0;91.0
21121;DHT22;12519;43.318;21.898;2023-06-10T07:43:37;24.2;90.0
21121;DHT22;12519;43.318;21.898;2023-06-10T07:48:13;24.2;90.0
21121;DHT22;12519;43.318;21.898;2023-06-10T07:52:50;24.4;89.0
21121;DHT22;12519;43.318;21.898;2023-06-10T07:57:26;24.4;89.0
21121;DHT22;12519;43.318;21.898;2023-06-10T08:02:05;24.4;89.0
21121;DHT22;12519;43.318;21.898;2023-06-10T08:06:41;24.7;88.0
21121;DHT22;12519;43.318;21.898;2023-06-10T08:11:18;24.7;88.0
21121;DHT22;12519;43.318;21.898;2023-06-10T08:15:54;25.0;86.0
21121;DHT22;12519;43.318;21.898;2023-06-10T08:20:31;25.0;86.0
21121;DHT22;12519;43.318;21.898;2023-06-10T08:25:10;25.2;85.0
21121;DHT22;12519;43.318;21.898;2023-06-10T08:29:46;25.2;85.0
21121;DHT22;12519;43.318;21.898;2023-06-10T08:34:22;25.4;84.0
21121;DHT22;12519;43.318;21.898;2023-06-10T08:38:58;25.4;84.0
21121;DHT22;12519;43.318;21.898;2023-06-10T08:44:03;25.7;84.0
21121;DHT22;12519;43.318;21.898;2023-06-10T08:49:05;25.7;84.0
21121;DHT22;12519;43.318;21.898;2023-06-10T08:54:05;26.0;83.0
21121;DHT22;12519;43.318;21.898;2023-06-10T08:58:59;26.0;83.0
21121;DHT22;12519;43.318;21.898;2023-06-10T09:03:42;25.9;84.0
21121;DHT22;12519;43.318;21.898;2023-06-10T09:08:20;25.9;84.0
21121;DHT22;12519;43.318;21.898;2023-06-10T09:12:57;25.8;84.0
21121;DHT22;12519;43.318;21.898;2023-06-10T09:17:36;25.8;84.0
21121;DHT22;12519;43.318;21.898;2023-06-10T09:22:12;25.8;84.0
21121;DHT22;12519;43.318;21.898;2023-06-10T09:26:50;25.9;84.0
21121;DHT22;12519;43.318;21.898;2023-06-10T09:31:41;25.9;84.0
21121;DHT22;12519;43.318;21.898;2023-06-10T09:36:23;26.0;84.0
21121;DHT22;12519;43.318;21.898;2023-06-10T09:41:02;26.0;84.0
21121;DHT22;12519;43.318;21.898;2023-06-10T09:45:39;26.2;84.0
21121;DHT22;12519;43.318;21.898;2023-06-10T09:50:16;26.2;84.0
21121;DHT22;12519;43.318;21.898;2023-06-10T09:55:02;26.5;82.0
21121;DHT22;12519;43.318;21.898;2023-06-10T09:59:39;26.5;82.0
21121;DHT22;12519;43.318;21.898;2023-06-10T10:04:24;26.6;81.0
21121;DHT22;12519;43.318;21.898;2023-06-10T10:09:01;26.6;81.0
21121;DHT22;12519;43.318;21.898;2023-06-10T10:13:41;26.7;80.0
21121;DHT22;12519;43.318;21.898;2023-06-10T10:18:31;26.7;80.0
21121;DHT22;12519;43.318;21.898;2023-06-10T10:23:53;26.8;80.0
21121;DHT22;12519;43.318;21.898;2023-06-10T10:29:16;26.8;80.0
21121;DHT22;12519;43.318;21.898;2023-06-10T10:34:12;26.8;80.0
21121;DHT22;12519;43.318;21.898;2023-06-10T10:38:57;26.8;80.0
21121;DHT22;12519;43.318;21.898;2023-06-10T10:43:36;26.9;80.0
21121;DHT22;12519;43.318;21.898;2023-06-10T10:48:15;26.9;80.0
21121;DHT22;12519;43.318;21.898;2023-06-10T10:53:01;26.9;80.0
21121;DHT22;12519;43.318;21.898;2023-06-10T10:57:39;27.0;80.0
21121;DHT22;12519;43.318;21.898;2023-06-10T11:02:19;27.0;80.0
21121;DHT22;12519;43.318;21.898;2023-06-10T11:07:11;27.1;79.0
21121;DHT22;12519;43.318;21.898;2023-06-10T11:11:50;27.1;79.0
21121;DHT22;12519;43.318;21.898;2023-06-10T11:16:29;27.2;79.0
21121;DHT22;12519;43.318;21.898;2023-06-10T11:21:17;27.2;79.0
21121;DHT22;12519;43.318;21.898;2023-06-10T11:26:30;27.2;79.0
21121;DHT22;12519;43.318;21.898;2023-06-10T11:31:19;27.2;79.0
21121;DHT22;12519;43.318;21.898;2023-06-10T11:35:59;27.1;80.0
21121;DHT22;12519;43.318;21.898;2023-06-10T11:40:37;27.1;80.0
21121;DHT22;12519;43.318;21.898;2023-06-10T11:45:16;27.0;79.0
21121;DHT22;12519;43.318;21.898;2023-06-10T11:49:57;27.0;79.0
21121;DHT22;12519;43.318;21.898;2023-06-10T11:54:34;27.0;78.0
21121;DHT22;12519;43.318;21.898;2023-06-10T11:59:11;27.0;78.0
21121;DHT22;12519;43.318;21.898;2023-06-10T12:03:58;27.0;77.0
21121;DHT22;12519;43.318;21.898;2023-06-10T12:08:43;27.0;77.0
21121;DHT22;12519;43.318;21.898;2023-06-10T12:13:21;27.1;76.0
21121;DHT22;12519;43.318;21.898;2023-06-10T12:17:59;27.1;76.0
21121;DHT22;12519;43.318;21.898;2023-06-10T12:22:42;27.1;76.0
21121;DHT22;12519;43.318;21.898;2023-06-10T12:27:21;27.4;75.0
21121;DHT22;12519;43.318;21.898;2023-06-10T12:32:04;27.4;75.0
21121;DHT22;12519;43.318;21.898;2023-06-10T12:36:49;27.7;75.0
21121;DHT22;12519;43.318;21.898;2023-06-10T12:41:29;27.7;75.0
21121;DHT22;12519;43.318;21.898;2023-06-10T12:46:10;27.7;75.0
21121;DHT22;12519;43.318;21.898;2023-06-10T12:50:56;27.7;75.0
21121;DHT22;12519;43.318;21.898;2023-06-10T12:55:34;27.7;74.0
21121;DHT22;12519;43.318;21.898;2023-06-10T13:00:15;27.7;74.0
21121;DHT22;12519;43.318;21.898;2023-06-10T13:04:53;27.6;73.0
21121;DHT22;12519;43.318;21.898;2023-06-10T13:09:30;27.6;73.0
21121;DHT22;12519;43.318;21.898;2023-06-10T13:14:06;27.4;73.0
21121;DHT22;12519;43.318;21.898;2023-06-10T13:18:43;27.4;73.0
21121;DHT22;12519;43.318;21.898;2023-06-10T13:23:19;27.4;73.0
21121;DHT22;12519;43.318;21.898;2023-06-10T13:27:55;27.6;72.0
21121;DHT22;12519;43.318;21.898;2023-06-10T13:32:32;27.6;72.0
21121;DHT22;12519;43.318;21.898;2023-06-10T13:37:08;27.8;72.0
21121;DHT22;12519;43.318;21.898;2023-06-10T13:41:44;27.8;72.0
21121;DHT22;12519;43.318;21.898;2023-06-10T13:46:21;27.8;71.0
21121;DHT22;12519;43.318;21.898;2023-06-10T13:50:58;27.8;71.0
21121;DHT22;12519;43.318;21.898;2023-06-10T13:55:34;27.9;70.0
21121;DHT22;12519;43.318;21.898;2023-06-10T14:00:12;27.9;70.0
21121;DHT22;12519;43.318;21.898;2023-06-10T14:04:51;27.9;70.0
21121;DHT22;12519;43.318;21.898;2023-06-10T14:09:28;27.9;70.0
21121;DHT22;12519;43.318;21.898;2023-06-10T14:14:05;27.9;70.0
21121;DHT22;12519;43.318;21.898;2023-06-10T14:18:41;27.9;70.0
21121;DHT22;12519;43.318;21.898;2023-06-10T14:23:18;27.9;70.0
21121;DHT22;12519;43.318;21.898;2023-06-10T14:27:55;27.6;71.0
21121;DHT22;12519;43.318;21.898;2023-06-10T14:32:31;27.6;71.0
21121;DHT22;12519;43.318;21.898;2023-06-10T14:37:08;27.4;72.0
21121;DHT22;12519;43.318;21.898;2023-06-10T14:41:45;27.4;72.0
21121;DHT22;12519;43.318;21.898;2023-06-10T14:46:22;27.2;74.0
21121;DHT22;12519;43.318;21.898;2023-06-10T14:50:59;27.2;74.0
21121;DHT22;12519;43.318;21.898;2023-06-10T14:55:35;27.1;75.0
21121;DHT22;12519;43.318;21.898;2023-06-10T15:00:15;27.1;75.0
21121;DHT22;12519;43.318;21.898;2023-06-10T15:04:53;26.9;77.0
21121;DHT22;12519;43.318;21.898;2023-06-10T15:09:29;26.9;77.0
21121;DHT22;12519;43.318;21.898;2023-06-10T15:14:05;26.7;78.0
21121;DHT22;12519;43.318;21.898;2023-06-10T15:18:42;26.7;78.0
21121;DHT22;12519;43.318;21.898;2023-06-10T15:23:19;26.7;78.0
21121;DHT22;12519;43.318;21.898;2023-06-10T15:27:55;26.8;78.0
21121;DHT22;12519;43.318;21.898;2023-06-10T15:32:32;26.8;78.0
21121;DHT22;12519;43.318;21.898;2023-06-10T15:37:09;26.8;78.0
21121;DHT22;12519;43.318;21.898;2023-06-10T15:41:46;26.8;78.0
21121;DHT22;12519;43.318;21.898;2023-06-10T15:46:23;26.8;77.0
21121;DHT22;12519;43.318;21.898;2023-06-10T15:50:59;26.8;77.0
21121;DHT22;12519;43.318;21.898;2023-06-10T15:55:36;26.8;77.0
21121;DHT22;12519;43.318;21.898;2023-06-10T16:00:15;26.8;77.0
21121;DHT22;12519;43.318;21.898;2023-06-10T16:04:53;26.8;77.0
21121;DHT22;12519;43.318;21.898;2023-06-10T16:09:30;26.8;77.0
21121;DHT22;12519;43.318;21.898;2023-06-10T16:14:06;26.7;77.0
21121;DHT22;12519;43.318;21.898;2023-06-10T16:18:42;26.7;77.0
21121;DHT22;12519;43.318;21.898;2023-06-10T16:23:19;26.7;77.0
21121;DHT22;12519;43.318;21.898;2023-06-10T16:27:57;26.7;77.0
21121;DHT22;12519;43.318;21.898;2023-06-10T16:32:33;26.7;77.0
21121;DHT22;12519;43.318;21.898;2023-06-10T16:37:10;26.7;77.0
21121;DHT22;12519;43.318;21.898;2023-06-10T16:41:46;26.7;77.0
21121;DHT22;12519;43.318;21.898;2023-06-10T16:46:23;26.6;78.0
21121;DHT22;12519;43.318;21.898;2023-06-10T16:51:00;26.6;78.0
21121;DHT22;12519;43.318;21.898;2023-06-10T16:55:36;26.6;78.0
21121;DHT22;12519;43.318;21.898;2023-06-10T17:00:15;26.6;78.0
21121;DHT22;12519;43.318;21.898;2023-06-10T17:04:53;26.4;78.0
21121;DHT22;12519;43.318;21.898;2023-06-10T17:09:30;26.4;78.0
21121;DHT22;12519;43.318;21.898;2023-06-10T17:14:07;26.2;77.0
21121;DHT22;12519;43.318;21.898;2023-06-10T17:18:44;26.2;77.0
21121;DHT22;12519;43.318;21.898;2023-06-10T17:23:21;26.2;77.0
21121;DHT22;12519;43.318;21.898;2023-06-10T17:27:58;26.0;78.0
21121;DHT22;12519;43.318;21.898;2023-06-10T17:32:35;26.0;78.0
21121;DHT22;12519;43.318;21.898;2023-06-10T17:37:11;25.9;79.0
21121;DHT22;12519;43.318;21.898;2023-06-10T17:41:48;25.9;79.0
21121;DHT22;12519;43.318;21.898;2023-06-10T17:46:24;25.8;79.0
21121;DHT22;12519;43.318;21.898;2023-06-10T17:51:01;25.8;79.0
21121;DHT22;12519;43.318;21.898;2023-06-10T17:55:37;25.7;79.0
21121;DHT22;12519;43.318;21.898;2023-06-10T18:00:15;25.7;79.0
21121;DHT22;12519;43.318;21.898;2023-06-10T18:04:53;25.5;80.0
21121;DHT22;12519;43.318;21.898;2023-06-10T18:09:29;25.5;80.0
21121;DHT22;12519;43.318;21.898;2023-06-10T18:14:06;25.4;82.0
21121;DHT22;12519;43.318;21.898;2023-06-10T18:18:43;25.4;82.0
21121;DHT22;12519;43.318;21.898;2023-06-10T18:23:21;25.4;82.0
21121;DHT22;12519;43.318;21.898;2023-06-10T18:27:57;25.4;82.0
21121;DHT22;12519;43.318;21.898;2023-06-10T18:32:33;25.4;82.0
21121;DHT22;12519;43.318;21.898;2023-06-10T18:46:23;24.5;90.0
21121;DHT22;12519;43.318;21.898;2023-06-10T18:50:59;24.5;90.0
21121;DHT22;12519;43.318;21.898;2023-06-10T18:55:35;24.5;90.0
21121;DHT22;12519;43.318;21.898;2023-06-10T19:00:16;24.5;90.0
21121;DHT22;12519;43.318;21.898;2023-06-10T19:04:52;24.4;90.0
21121;DHT22;12519;43.318;21.898;2023-06-10T19:09:28;24.4;90.0
21121;DHT22;12519;43.318;21.898;2023-06-10T19:14:05;24.4;90.0
21121;DHT22;12519;43.318;21.898;2023-06-10T19:18:41;24.4;90.0
21121;DHT22;12519;43.318;21.898;2023-06-10T19:23:17;24.4;90.0
21121;DHT22;12519;43.318;21.898;2023-06-10T19:27:54;24.2;90.0
21121;DHT22;12519;43.318;21.898;2023-06-10T19:32:31;24.2;90.0
21121;DHT22;12519;43.318;21.898;2023-06-10T19:37:08;24.0;91.0
21121;DHT22;12519;43.318;21.898;2023-06-10T19:41:45;24.0;91.0
21121;DHT22;12519;43.318;21.898;2023-06-10T19:46:22;23.8;93.0
21121;DHT22;12519;43.318;21.898;2023-06-10T19:50:58;23.8;93.0
21121;DHT22;12519;43.318;21.898;2023-06-10T19:55:35;23.6;94.0
21121;DHT22;12519;43.318;21.898;2023-06-10T20:00:15;23.6;94.0
21121;DHT22;12519;43.318;21.898;2023-06-10T20:04:52;23.6;95.0
21121;DHT22;12519;43.318;21.898;2023-06-10T20:09:29;23.6;95.0
21121;DHT22;12519;43.318;21.898;2023-06-10T20:14:06;23.6;95.0
21121;DHT22;12519;43.318;21.898;2023-06-10T20:18:43;23.5;95.0
21121;DHT22;12519;43.318;21.898;2023-06-10T20:23:19;23.5;95.0
21121;DHT22;12519;43.318;21.898;2023-06-10T20:27:55;23.3;96.0
21121;DHT22;12519;43.318;21.898;2023-06-10T20:32:32;23.3;96.0
21121;DHT22;12519;43.318;21.898;2023-06-10T20:37:08;23.1;96.0
21121;DHT22;12519;43.318;21.898;2023-06-10T20:41:45;23.1;96.0
21121;DHT22;12519;43.318;21.898;2023-06-10T20:46:22;23.2;96.0
21121;DHT22;12519;43.318;21.898;2023-06-10T20:50:58;23.2;96.0
21121;DHT22;12519;43.318;21.898;2023-06-10T20:55:35;23.2;96.0
21121;DHT22;12519;43.318;21.898;2023-06-10T21:00:14;23.2;96.0
21121;DHT22;12519;43.318;21.898;2023-06-10T21:04:51;23.1;96.0
21121;DHT22;12519;43.318;21.898;2023-06-10T21:09:28;23.1;96.0
21121;DHT22;12519;43.318;21.898;2023-06-10T21:14:04;23.1;96.0
21121;DHT22;12519;43.318;21.898;2023-06-10T21:18:41;23.0;96.0
21121;DHT22;12519;43.318;21.898;2023-06-10T21:23:17;23.0;96.0
21121;DHT22;12519;43.318;21.898;2023-06-10T21:27:53;22.8;96.0
21121;DHT22;12519;43.318;21.898;2023-06-10T21:32:30;22.8;96.0
21121;DHT22;12519;43.318;21.898;2023-06-10T21:37:06;22.7;96.0
21121;DHT22;12519;43.318;21.898;2023-06-10T21:41:42;22.7;96.0
21121;DHT22;12519;43.318;21.898;2023-06-10T21:46:19;22.6;96.0
21121;DHT22;12519;43.318;21.898;2023-06-10T21:50:56;22.6;96.0
21121;DHT22;12519;43.318;21.898;2023-06-10T21:55:32;22.5;96.0
21121;DHT22;12519;43.318;21.898;2023-06-10T22:00:13;22.5;96.0
21121;DHT22;12519;43.318;21.898;2023-06-10T22:04:50;22.2;96.0
21121;DHT22;12519;43.318;21.898;2023-06-10T22:09:27;22.2;96.0
21121;DHT22;12519;43.318;21.898;2023-06-10T22:14:06;22.2;96.0
21121;DHT22;12519;43.318;21.898;2023-06-10T22:18:43;22.0;97.0
21121;DHT22;12519;43.318;21.898;2023-06-10T22:23:21;22.0;97.0
21121;DHT22;12519;43.318;21.898;2023-06-10T22:27:58;22.2;97.0
21121;DHT22;12519;43.318;21.898;2023-06-10T22:32:35;22.2;97.0
21121;DHT22;12519;43.318;21.898;2023-06-10T22:37:12;22.5;96.0
21121;DHT22;12519;43.318;21.898;2023-06-10T22:41:49;22.5;96.0
21121;DHT22;12519;43.318;21.898;2023-06-10T22:46:26;22.2;96.0
21121;DHT22;12519;43.318;21.898;2023-06-10T22:51:02;22.2;96.0
21121;DHT22;12519;43.318;21.898;2023-06-10T22:55:39;22.0;95.0
21121;DHT22;12519;43.318;21.898;2023-06-10T23:00:17;22.0;95.0
21121;DHT22;12519;43.318;21.898;2023-06-10T23:04:53;21.8;96.0
21121;DHT22;12519;43.318;21.898;2023-06-10T23:09:30;21.8;96.0
21121;DHT22;12519;43.318;21.898;2023-06-10T23:14:07;21.8;96.0
21121;DHT22;12519;43.318;21.898;2023-06-10T23:18:43;21.6;96.0
21121;DHT22;12519;43.318;21.898;2023-06-10T23:23:20;21.6;96.0
21121;DHT22;12519;43.318;21.898;2023-06-10T23:27:56;21.5;97.0
21121;DHT22;12519;43.318;21.898;2023-06-10T23:32:33;21.5;97.0
21121;DHT22;12519;43.318;21.898;2023-06-10T23:37:09;21.4;97.0
21121;DHT22;12519;43.318;21.898;2023-06-10T23:41:46;21.4;97.0
21121;DHT22;12519;43.318;21.898;2023-06-10T23:46:22;21.3;97.0
21121;DHT22;12519;43.318;21.898;2023-06-10T23:50:58;21.3;97.0
21121;DHT22;12519;43.318;21.898;2023-06-10T23:55:35;21.2;97.0
